createdAt,value
2022-12-31T00:01:33.240Z,11.38
2022-12-31T00:03:59.955Z,11.46
2022-12-31T00:06:30.662Z,11.45
2022-12-31T00:08:59.711Z,11.45
2022-12-31T00:11:28.219Z,11.49
2022-12-31T00:13:55.408Z,11.43
2022-12-31T00:16:24.153Z,11.38
2022-12-31T00:18:53.715Z,11.28
2022-12-31T00:21:20.782Z,11.34
2022-12-31T00:23:49.127Z,11.18
2022-12-31T00:26:17.682Z,11.17
2022-12-31T00:28:44.986Z,11.09
2022-12-31T00:31:13.859Z,11.17
2022-12-31T00:33:40.996Z,11.07
2022-12-31T00:36:11.705Z,11.13
2022-12-31T00:38:39.356Z,11.07
2022-12-31T00:41:07.775Z,11.08
2022-12-31T00:43:35.087Z,11.08
2022-12-31T00:46:01.868Z,11.03
2022-12-31T00:48:29.021Z,11.09
2022-12-31T00:50:56.589Z,11.14
2022-12-31T00:53:24.331Z,11.18
2022-12-31T00:55:51.068Z,11.26
2022-12-31T00:58:19.000Z,11.29
2022-12-31T01:00:45.587Z,11.35
2022-12-31T01:03:12.210Z,11.26
2022-12-31T01:05:38.881Z,11.23
2022-12-31T01:08:05.956Z,11.22
2022-12-31T01:10:32.630Z,11.16
2022-12-31T01:12:59.729Z,11.19
2022-12-31T01:15:27.704Z,11.17
2022-12-31T01:17:54.403Z,11.13
2022-12-31T01:20:21.012Z,10.96
2022-12-31T01:22:47.587Z,11.11
2022-12-31T01:25:14.321Z,11.19
2022-12-31T01:27:40.898Z,11.19
2022-12-31T01:30:08.811Z,11.11
2022-12-31T01:32:36.773Z,11.08
2022-12-31T01:35:03.714Z,11.00
2022-12-31T01:37:30.458Z,10.98
2022-12-31T01:39:57.078Z,10.90
2022-12-31T01:42:23.649Z,10.93
2022-12-31T01:44:53.458Z,10.90
2022-12-31T01:47:28.977Z,10.95
2022-12-31T01:50:01.857Z,10.90
2022-12-31T01:52:31.097Z,10.81
2022-12-31T01:55:02.323Z,10.87
2022-12-31T01:57:29.595Z,10.72
2022-12-31T01:59:56.855Z,10.63
2022-12-31T02:02:23.715Z,10.60
2022-12-31T02:04:54.132Z,10.54
2022-12-31T02:07:22.817Z,10.57
2022-12-31T02:09:49.492Z,10.52
2022-12-31T02:12:16.135Z,9.80
2022-12-31T02:14:46.290Z,9.42
2022-12-31T02:17:20.849Z,9.73
2022-12-31T02:20:14.831Z,9.96
2022-12-31T02:23:00.918Z,10.36
2022-12-31T02:25:46.952Z,10.58
2022-12-31T02:28:27.465Z,10.74
2022-12-31T02:31:01.124Z,10.49
2022-12-31T02:33:32.283Z,10.16
2022-12-31T02:36:02.263Z,10.32
2022-12-31T02:38:32.970Z,10.41
2022-12-31T02:41:00.344Z,10.19
2022-12-31T02:43:27.552Z,10.14
2022-12-31T02:46:07.558Z,10.01
2022-12-31T02:48:44.162Z,10.03
2022-12-31T02:51:26.211Z,10.02
2022-12-31T02:54:16.069Z,10.00
2022-12-31T02:56:49.462Z,9.97
2022-12-31T02:59:21.807Z,10.00
2022-12-31T03:01:56.244Z,9.94
2022-12-31T03:04:26.522Z,9.96
2022-12-31T03:06:53.874Z,9.90
2022-12-31T03:09:20.592Z,9.81
2022-12-31T03:11:47.759Z,9.77
2022-12-31T03:14:14.383Z,9.67
2022-12-31T03:16:41.058Z,9.89
2022-12-31T03:19:09.224Z,9.82
2022-12-31T03:21:35.837Z,9.50
2022-12-31T03:24:02.454Z,9.10
2022-12-31T03:26:29.064Z,9.06
2022-12-31T03:28:55.622Z,9.23
2022-12-31T03:31:22.280Z,9.40
2022-12-31T03:33:48.909Z,9.22
2022-12-31T03:36:16.938Z,9.52
2022-12-31T03:38:45.460Z,9.38
2022-12-31T03:41:15.148Z,9.28
2022-12-31T03:43:41.710Z,9.24
2022-12-31T03:46:08.431Z,8.95
2022-12-31T03:48:35.085Z,9.06
2022-12-31T03:51:01.660Z,9.38
2022-12-31T03:53:29.665Z,9.57
2022-12-31T03:55:56.299Z,9.42
2022-12-31T03:58:22.893Z,9.11
2022-12-31T04:00:50.126Z,9.11
2022-12-31T04:03:16.902Z,9.30
2022-12-31T04:05:43.586Z,9.63
2022-12-31T04:08:10.176Z,9.92
2022-12-31T04:10:38.150Z,10.09
2022-12-31T04:13:05.011Z,9.70
2022-12-31T04:15:32.267Z,9.34
2022-12-31T04:17:58.857Z,9.61
2022-12-31T04:20:25.684Z,9.60
2022-12-31T04:22:52.262Z,9.24
2022-12-31T04:25:19.019Z,9.13
2022-12-31T04:27:47.034Z,9.30
2022-12-31T04:30:14.525Z,9.81
2022-12-31T04:32:42.018Z,9.98
2022-12-31T04:35:09.891Z,10.01
2022-12-31T04:37:36.585Z,9.44
2022-12-31T04:40:06.233Z,9.55
2022-12-31T04:42:33.350Z,9.88
2022-12-31T04:45:01.362Z,10.00
2022-12-31T04:47:27.999Z,10.01
2022-12-31T04:49:54.637Z,9.90
2022-12-31T04:52:21.388Z,10.03
2022-12-31T04:54:47.996Z,9.98
2022-12-31T04:57:14.770Z,9.98
2022-12-31T04:59:41.445Z,9.86
2022-12-31T05:02:09.627Z,9.97
2022-12-31T05:04:36.450Z,10.04
2022-12-31T05:07:03.162Z,9.96
2022-12-31T05:09:29.819Z,9.99
2022-12-31T05:11:56.637Z,9.95
2022-12-31T05:14:23.291Z,9.76
2022-12-31T05:16:50.032Z,9.88
2022-12-31T05:19:18.304Z,9.55
2022-12-31T05:21:44.906Z,9.69
2022-12-31T05:24:11.503Z,9.67
2022-12-31T05:26:38.085Z,9.36
2022-12-31T05:29:04.756Z,9.37
2022-12-31T05:31:31.395Z,9.44
2022-12-31T05:33:57.988Z,9.41
2022-12-31T05:36:25.917Z,9.41
2022-12-31T05:38:52.487Z,9.34
2022-12-31T05:41:19.245Z,9.47
2022-12-31T05:43:45.867Z,9.61
2022-12-31T05:46:12.502Z,9.72
2022-12-31T05:48:39.184Z,9.67
2022-12-31T05:51:06.125Z,9.26
2022-12-31T05:53:34.087Z,9.38
2022-12-31T05:56:00.693Z,9.46
2022-12-31T05:58:27.269Z,9.49
2022-12-31T06:00:53.917Z,9.51
2022-12-31T06:03:20.624Z,9.56
2022-12-31T06:05:47.318Z,9.67
2022-12-31T06:08:13.904Z,9.59
2022-12-31T06:10:41.874Z,9.65
2022-12-31T06:13:11.319Z,9.74
2022-12-31T06:15:39.274Z,9.58
2022-12-31T06:18:06.072Z,9.31
2022-12-31T06:20:32.692Z,9.05
2022-12-31T06:22:59.329Z,9.08
2022-12-31T06:25:26.048Z,9.22
2022-12-31T06:27:54.034Z,9.14
2022-12-31T06:30:20.607Z,9.03
2022-12-31T06:32:47.261Z,9.24
2022-12-31T06:35:13.878Z,9.20
2022-12-31T06:37:40.489Z,9.39
2022-12-31T06:40:08.508Z,9.19
2022-12-31T06:42:35.128Z,9.37
2022-12-31T06:45:03.319Z,9.34
2022-12-31T06:47:29.931Z,9.41
2022-12-31T06:49:56.489Z,9.29
2022-12-31T06:52:23.079Z,9.38
2022-12-31T06:54:50.191Z,9.48
2022-12-31T06:57:17.420Z,9.53
2022-12-31T06:59:44.569Z,9.58
2022-12-31T07:02:27.339Z,9.73
2022-12-31T07:05:27.240Z,9.78
2022-12-31T07:08:05.731Z,9.72
2022-12-31T07:10:41.784Z,9.69
2022-12-31T07:13:23.590Z,9.73
2022-12-31T07:16:07.640Z,9.89
2022-12-31T07:18:42.093Z,10.08
2022-12-31T07:21:13.745Z,10.00
2022-12-31T07:23:41.135Z,10.02
2022-12-31T07:26:16.875Z,10.23
2022-12-31T07:28:57.688Z,10.30
2022-12-31T07:31:40.454Z,10.30
2022-12-31T07:34:19.810Z,10.31
2022-12-31T07:36:59.263Z,10.33
2022-12-31T07:39:28.263Z,10.47
2022-12-31T07:42:01.877Z,10.56
2022-12-31T07:44:53.935Z,10.57
2022-12-31T07:47:22.223Z,10.72
2022-12-31T07:49:51.196Z,10.82
2022-12-31T07:52:18.866Z,10.80
2022-12-31T07:54:45.841Z,10.77
2022-12-31T07:57:14.205Z,10.93
2022-12-31T07:59:54.646Z,11.06
2022-12-31T08:02:35.088Z,11.11
2022-12-31T08:05:12.359Z,11.14
2022-12-31T08:07:47.212Z,11.15
2022-12-31T08:10:19.241Z,11.24
2022-12-31T08:12:48.970Z,11.35
2022-12-31T08:15:17.651Z,11.43
2022-12-31T08:17:44.732Z,11.53
2022-12-31T08:20:15.792Z,11.55
2022-12-31T08:23:05.695Z,11.54
2022-12-31T08:25:40.481Z,11.61
2022-12-31T08:28:19.952Z,11.64
2022-12-31T08:30:53.434Z,11.70
2022-12-31T08:33:27.830Z,11.73
2022-12-31T08:36:10.809Z,11.61
2022-12-31T08:38:47.552Z,11.62
2022-12-31T08:41:25.251Z,11.58
2022-12-31T08:48:14.984Z,11.59
2022-12-31T08:51:10.790Z,11.61
2022-12-31T08:57:25.375Z,11.78
2022-12-31T09:00:21.627Z,11.98
2022-12-31T09:03:34.755Z,12.12
2022-12-31T09:06:32.840Z,12.19
2022-12-31T09:09:39.054Z,12.46
2022-12-31T09:12:25.082Z,12.66
2022-12-31T09:15:24.630Z,12.61
2022-12-31T09:18:05.365Z,12.64
2022-12-31T09:21:28.580Z,12.92
2022-12-31T09:27:40.562Z,13.17
2022-12-31T11:25:19.207Z,14.89
2022-12-31T11:31:20.124Z,14.92
2022-12-31T11:34:10.792Z,15.41
2022-12-31T11:57:26.197Z,15.10
2022-12-31T11:59:56.774Z,15.20
2022-12-31T12:02:28.661Z,15.18
2022-12-31T12:04:59.147Z,15.06
2022-12-31T12:07:27.052Z,14.98
2022-12-31T12:09:55.653Z,15.25
2022-12-31T12:12:23.755Z,15.27
2022-12-31T12:14:53.459Z,15.25
2022-12-31T12:17:27.742Z,15.20
2022-12-31T12:19:56.124Z,15.07
2022-12-31T12:22:25.240Z,14.95
2022-12-31T12:24:54.558Z,14.96
2022-12-31T12:27:27.143Z,15.00
2022-12-31T12:29:53.818Z,14.99
2022-12-31T12:32:22.739Z,15.28
2022-12-31T12:34:50.258Z,15.40
2022-12-31T12:37:28.282Z,15.46
2022-12-31T12:39:59.853Z,15.29
2022-12-31T12:42:28.854Z,15.34
2022-12-31T12:45:07.117Z,15.22
2022-12-31T12:47:34.510Z,15.33
2022-12-31T12:50:04.591Z,15.19
2022-12-31T12:52:49.362Z,15.43
2022-12-31T12:59:26.053Z,15.50
2022-12-31T13:02:24.914Z,15.50
2022-12-31T13:05:06.063Z,15.56
2022-12-31T13:08:08.828Z,15.36
2022-12-31T13:11:11.762Z,15.36
2022-12-31T13:13:47.901Z,15.28
2022-12-31T13:16:24.386Z,15.39
2022-12-31T13:19:00.270Z,15.44
2022-12-31T13:21:40.776Z,15.51
2022-12-31T13:24:18.183Z,15.47
2022-12-31T13:26:52.959Z,15.59
2022-12-31T13:29:23.911Z,15.49
2022-12-31T13:31:54.197Z,15.62
2022-12-31T13:34:27.280Z,15.71
2022-12-31T13:36:58.710Z,15.59
2022-12-31T13:39:28.575Z,15.73
2022-12-31T13:41:59.344Z,15.76
2022-12-31T13:44:30.886Z,15.57
2022-12-31T13:47:05.422Z,15.57
2022-12-31T13:49:42.299Z,15.65
2022-12-31T13:52:21.668Z,15.52
2022-12-31T13:54:54.613Z,15.45
2022-12-31T13:57:31.200Z,15.53
2022-12-31T14:00:01.432Z,15.42
2022-12-31T14:02:36.469Z,15.41
2022-12-31T14:05:12.804Z,15.47
2022-12-31T14:07:47.117Z,15.38
2022-12-31T14:10:15.120Z,15.32
2022-12-31T14:12:51.137Z,15.23
2022-12-31T14:15:24.839Z,15.34
2022-12-31T14:18:01.379Z,15.21
2022-12-31T14:20:36.096Z,15.14
2022-12-31T14:23:16.623Z,15.01
2022-12-31T14:25:48.860Z,14.86
2022-12-31T14:28:19.566Z,14.94
2022-12-31T14:30:52.369Z,14.87
2022-12-31T14:33:38.841Z,14.88
2022-12-31T14:36:16.705Z,14.89
2022-12-31T14:38:53.719Z,14.78
2022-12-31T14:41:34.370Z,14.71
2022-12-31T14:44:14.129Z,14.64
2022-12-31T14:46:53.078Z,14.70
2022-12-31T14:49:33.587Z,14.65
2022-12-31T14:52:19.382Z,14.61
2022-12-31T14:54:45.992Z,14.59
2022-12-31T14:57:23.861Z,14.43
2022-12-31T14:59:55.361Z,14.44
2022-12-31T15:02:30.382Z,14.38
2022-12-31T15:05:11.366Z,14.35
2022-12-31T15:07:49.846Z,14.21
2022-12-31T15:10:21.276Z,14.22
2022-12-31T15:13:01.742Z,14.15
2022-12-31T15:16:00.707Z,14.10
2022-12-31T15:18:42.575Z,13.99
2022-12-31T15:21:28.299Z,13.89
2022-12-31T15:23:56.737Z,13.79
2022-12-31T15:26:25.604Z,13.75
2022-12-31T15:29:02.297Z,13.74
2022-12-31T15:31:29.640Z,13.69
2022-12-31T15:33:59.279Z,13.63
2022-12-31T15:36:27.632Z,13.61
2022-12-31T15:39:21.752Z,13.54
2022-12-31T15:42:36.163Z,13.53
2022-12-31T15:44:46.245Z,13.56
2022-12-31T15:47:20.710Z,13.53
2022-12-31T15:49:47.759Z,13.49
2022-12-31T15:52:18.165Z,13.52
2022-12-31T15:54:49.395Z,13.53
2022-12-31T15:57:18.826Z,13.47
2022-12-31T15:59:45.629Z,13.46
2022-12-31T16:02:20.630Z,13.46
2022-12-31T16:04:47.923Z,13.49
2022-12-31T16:07:15.112Z,13.49
2022-12-31T16:09:42.262Z,13.22
2022-12-31T16:12:15.800Z,12.95
2022-12-31T16:14:44.623Z,12.94
2022-12-31T16:17:29.938Z,13.10
2022-12-31T16:19:57.200Z,13.17
2022-12-31T16:22:27.045Z,13.25
2022-12-31T16:25:28.922Z,13.18
2022-12-31T16:27:43.039Z,13.27
2022-12-31T16:30:20.216Z,13.31
2022-12-31T16:32:49.309Z,13.34
2022-12-31T16:35:25.837Z,13.30
2022-12-31T16:38:13.629Z,13.27
2022-12-31T16:40:42.154Z,13.33
2022-12-31T16:43:29.046Z,13.33
2022-12-31T16:45:57.450Z,13.38
2022-12-31T16:48:24.820Z,13.31
2022-12-31T16:50:54.463Z,13.35
2022-12-31T16:53:25.269Z,13.34
2022-12-31T16:55:54.899Z,13.25
2022-12-31T16:58:27.616Z,13.23
2022-12-31T17:01:00.078Z,13.26
2022-12-31T17:03:28.964Z,13.07
2022-12-31T17:05:58.777Z,13.05
2022-12-31T17:08:27.560Z,13.08
2022-12-31T17:10:54.560Z,13.16
2022-12-31T17:13:28.297Z,13.18
2022-12-31T17:15:58.195Z,13.09
2022-12-31T17:18:28.589Z,12.92
2022-12-31T17:20:55.373Z,12.73
2022-12-31T17:23:26.678Z,12.79
2022-12-31T17:26:00.868Z,12.71
2022-12-31T17:28:37.961Z,12.70
2022-12-31T17:31:26.874Z,12.70
2022-12-31T17:34:03.867Z,12.70
2022-12-31T17:36:30.617Z,12.63
2022-12-31T17:39:15.351Z,12.70
2022-12-31T17:41:44.961Z,12.60
2022-12-31T17:44:17.118Z,12.48
2022-12-31T17:46:45.437Z,12.34
2022-12-31T17:49:13.160Z,12.32
2022-12-31T17:51:45.523Z,12.30
2022-12-31T17:54:14.909Z,12.31
2022-12-31T17:56:42.195Z,11.95
2022-12-31T17:59:12.092Z,11.65
2022-12-31T18:01:38.843Z,11.41
2022-12-31T18:04:12.189Z,11.58
2022-12-31T18:06:38.756Z,11.77
2022-12-31T18:09:05.335Z,11.64
2022-12-31T18:11:32.135Z,11.63
2022-12-31T18:13:59.125Z,11.65
2022-12-31T18:16:25.817Z,11.75
2022-12-31T18:18:52.442Z,11.76
2022-12-31T18:21:26.777Z,11.86
2022-12-31T18:26:20.947Z,11.92
2022-12-31T18:28:48.568Z,11.95
2022-12-31T18:31:19.136Z,11.91
2022-12-31T18:33:45.955Z,11.72
2022-12-31T18:36:14.098Z,11.67
2022-12-31T18:38:42.597Z,11.75
2022-12-31T18:41:17.476Z,11.74
2022-12-31T18:43:44.152Z,11.61
2022-12-31T18:46:13.277Z,11.37
2022-12-31T18:48:39.987Z,11.55
2022-12-31T18:51:06.786Z,11.72
2022-12-31T18:53:33.388Z,11.80
2022-12-31T18:56:01.356Z,11.76
2022-12-31T18:58:27.910Z,11.71
2022-12-31T19:00:54.655Z,11.68
2022-12-31T19:03:22.949Z,11.41
2022-12-31T19:05:50.408Z,11.31
2022-12-31T19:08:17.325Z,11.34
2022-12-31T19:10:44.016Z,11.30
2022-12-31T19:13:12.980Z,11.39
2022-12-31T19:15:42.952Z,11.49
2022-12-31T19:18:09.680Z,11.54
2022-12-31T19:20:36.894Z,11.45
2022-12-31T19:23:03.508Z,11.33
2022-12-31T19:25:33.267Z,11.20
2022-12-31T19:28:00.398Z,11.30
2022-12-31T19:30:30.312Z,10.88
2022-12-31T19:32:57.168Z,10.92
2022-12-31T19:35:24.604Z,10.87
2022-12-31T19:37:52.958Z,10.69
2022-12-31T19:40:21.771Z,10.76
2022-12-31T19:42:48.985Z,10.98
2022-12-31T19:45:17.733Z,11.15
2022-12-31T19:47:46.528Z,11.11
2022-12-31T19:50:15.196Z,11.09
2022-12-31T19:52:42.632Z,11.15
2022-12-31T19:55:13.474Z,11.20
2022-12-31T19:57:40.418Z,11.22
2022-12-31T20:00:08.729Z,10.97
2022-12-31T20:02:35.461Z,10.95
2022-12-31T20:05:03.896Z,10.94
2022-12-31T20:07:30.474Z,10.95
2022-12-31T20:09:57.042Z,10.79
2022-12-31T20:12:23.641Z,10.76
2022-12-31T20:14:50.290Z,10.58
2022-12-31T20:17:16.975Z,10.52
2022-12-31T20:19:43.850Z,10.40
2022-12-31T20:22:11.819Z,10.66
2022-12-31T20:24:38.536Z,10.76
2022-12-31T20:27:05.553Z,10.57
2022-12-31T20:29:32.171Z,10.75
2022-12-31T20:31:58.761Z,10.61
2022-12-31T20:34:25.456Z,10.63
2022-12-31T20:36:52.130Z,10.68
2022-12-31T20:39:20.230Z,10.69
2022-12-31T20:41:46.944Z,10.56
2022-12-31T20:44:13.582Z,10.48
2022-12-31T20:46:40.369Z,10.17
2022-12-31T20:49:07.103Z,10.17
2022-12-31T20:51:34.934Z,9.97
2022-12-31T20:54:03.771Z,10.01
2022-12-31T20:56:34.503Z,10.11
2022-12-31T20:59:01.697Z,10.15
2022-12-31T21:01:41.837Z,10.19
2022-12-31T21:04:15.450Z,10.21
2022-12-31T21:06:42.294Z,10.07
2022-12-31T21:09:09.296Z,9.92
2022-12-31T21:11:44.332Z,9.65
2022-12-31T21:14:10.976Z,9.42
2022-12-31T21:16:37.626Z,9.44
2022-12-31T21:19:04.247Z,9.40
2022-12-31T21:21:31.081Z,9.82
2022-12-31T21:24:00.698Z,9.97
2022-12-31T21:26:36.227Z,9.94
2022-12-31T21:29:06.381Z,9.93
2022-12-31T21:31:33.407Z,9.95
2022-12-31T21:34:00.323Z,9.90
2022-12-31T21:36:26.929Z,10.03
2022-12-31T21:38:56.213Z,9.84
2022-12-31T21:41:24.208Z,9.89
2022-12-31T21:43:52.628Z,9.98
2022-12-31T21:46:20.828Z,9.80
2022-12-31T21:48:56.372Z,9.90
2022-12-31T21:51:24.142Z,9.74
2022-12-31T21:53:51.272Z,9.80
2022-12-31T21:56:23.386Z,9.35
2022-12-31T21:58:54.806Z,9.36
2022-12-31T22:01:22.922Z,9.16
2022-12-31T22:03:54.840Z,9.12
2022-12-31T22:06:34.706Z,9.01
2022-12-31T22:11:58.913Z,9.61
2022-12-31T22:14:26.839Z,9.71
2022-12-31T22:17:05.874Z,9.81
2022-12-31T22:19:48.717Z,9.76
2022-12-31T22:22:21.474Z,9.75
2022-12-31T22:24:48.401Z,9.51
2022-12-31T22:27:28.358Z,9.39
2022-12-31T22:29:58.117Z,9.57
2022-12-31T22:32:26.388Z,9.71
2022-12-31T22:34:54.249Z,9.74
2022-12-31T22:37:54.904Z,9.84
2022-12-31T22:40:11.302Z,10.02
2022-12-31T22:42:38.148Z,10.03
2022-12-31T22:45:09.751Z,10.08
2022-12-31T22:48:27.032Z,10.03
2022-12-31T22:50:57.549Z,10.24
2022-12-31T22:53:24.750Z,10.28
2022-12-31T22:56:10.714Z,10.34
2022-12-31T23:00:18.376Z,10.23
2022-12-31T23:01:33.545Z,10.30
2022-12-31T23:04:01.856Z,10.18
2022-12-31T23:06:28.577Z,10.09
2022-12-31T23:08:55.747Z,9.96
2022-12-31T23:11:22.583Z,10.11
2022-12-31T23:14:15.193Z,10.04
2022-12-31T23:16:45.548Z,10.23
2022-12-31T23:19:22.831Z,10.09
2022-12-31T23:21:49.913Z,9.97
2022-12-31T23:24:27.141Z,9.96
2022-12-31T23:26:55.133Z,9.94
2022-12-31T23:29:34.241Z,10.10
2022-12-31T23:32:01.022Z,10.11
2022-12-31T23:34:33.703Z,10.17
2022-12-31T23:37:00.606Z,10.06
2022-12-31T23:39:40.062Z,9.83
2022-12-31T23:42:12.701Z,9.82
2022-12-31T23:44:45.859Z,9.67
2022-12-31T23:47:53.106Z,9.60
2022-12-31T23:50:30.597Z,9.77
2022-12-31T23:52:59.741Z,9.75
2022-12-31T23:55:26.867Z,9.80
2022-12-31T23:57:53.924Z,9.81
